Time;durP1;ratioP1;P1;durP2;ratioP2;P2;SDS_P1;SDS_P2;PMS_P1;PMS_P2;Temp;Humidity;BMP_temperature;BMP_pressure;BME280_temperature;BME280_humidity;BME280_pressure;Samples;Min_cycle;Max_cycle;Signal;HPM_P1;HPM_P2
2022/11/09 00:00:40;;;;;;;11.40;8.00;;;9.70;33.20;;;;;;5039470;28;20926;-61
2022/11/09 00:03:07;;;;;;;12.43;7.33;;;9.70;33.20;;;;;;5041888;28;20490;-62
2022/11/09 00:05:35;;;;;;;12.57;7.77;;;9.70;33.00;;;;;;5045398;28;20466;-62
2022/11/09 00:08:05;;;;;;;10.70;7.13;;;9.70;33.00;;;;;;5044209;28;20461;-62
2022/11/09 00:10:32;;;;;;;12.13;7.53;;;9.70;33.00;;;;;;5039898;28;20461;-62
2022/11/09 00:13:00;;;;;;;11.53;7.57;;;9.70;32.90;;;;;;5042265;28;20462;-62
2022/11/09 00:15:27;;;;;;;14.50;7.77;;;9.70;32.90;;;;;;5046130;28;20459;-62
2022/11/09 00:17:54;;;;;;;10.67;7.30;;;9.80;32.70;;;;;;5045973;28;20458;-62
2022/11/09 00:20:21;;;;;;;10.90;7.60;;;9.80;32.80;;;;;;5042605;28;20473;-62
2022/11/09 00:22:49;;;;;;;12.90;7.10;;;9.80;32.60;;;;;;5043290;28;20544;-62
2022/11/09 00:25:17;;;;;;;10.70;7.23;;;9.80;32.70;;;;;;5047689;28;20496;-62
2022/11/09 00:27:43;;;;;;;11.23;6.33;;;9.80;32.70;;;;;;5047870;28;20504;-61
2022/11/09 00:30:11;;;;;;;12.53;6.40;;;9.80;32.60;;;;;;5051594;28;20468;-62
2022/11/09 00:32:38;;;;;;;12.13;6.80;;;9.80;32.60;;;;;;5048075;28;20478;-62
2022/11/09 00:35:05;;;;;;;13.17;7.00;;;9.70;32.60;;;;;;5047247;28;20553;-62
2022/11/09 00:37:32;;;;;;;9.27;6.17;;;9.70;32.70;;;;;;5046468;28;20473;-62
2022/11/09 00:40:00;;;;;;;10.20;6.00;;;9.70;32.70;;;;;;5047584;28;20462;-62
2022/11/09 00:42:27;;;;;;;9.50;5.93;;;9.80;32.40;;;;;;5043197;28;20465;-62
2022/11/09 00:44:54;;;;;;;9.63;6.40;;;9.80;32.00;;;;;;5048189;28;20488;-62
2022/11/09 00:47:21;;;;;;;13.40;6.70;;;9.80;32.10;;;;;;5038379;28;20455;-62
2022/11/09 00:49:47;;;;;;;11.30;7.17;;;9.80;32.20;;;;;;5048269;28;20472;-62
2022/11/09 00:52:14;;;;;;;10.13;6.60;;;9.80;32.20;;;;;;5045067;28;20462;-62
2022/11/09 00:54:41;;;;;;;11.13;7.40;;;9.90;32.10;;;;;;5048688;28;20481;-61
2022/11/09 00:57:09;;;;;;;11.43;6.57;;;9.80;32.00;;;;;;5044698;28;21048;-61
2022/11/09 00:59:36;;;;;;;10.33;6.57;;;9.80;32.10;;;;;;5044368;28;20459;-61
2022/11/09 01:02:02;;;;;;;9.07;6.20;;;9.80;32.20;;;;;;5045919;28;20465;-61
2022/11/09 01:04:29;;;;;;;10.47;6.13;;;9.70;32.40;;;;;;5044279;28;20580;-61
2022/11/09 01:06:56;;;;;;;11.33;6.47;;;9.70;32.40;;;;;;5048080;28;20457;-61
2022/11/09 01:09:23;;;;;;;10.30;7.83;;;9.70;32.40;;;;;;5045557;28;20465;-62
2022/11/09 01:11:50;;;;;;;11.93;7.43;;;9.70;32.50;;;;;;5046129;28;20454;-61
2022/11/09 01:14:18;;;;;;;10.10;6.63;;;9.70;32.60;;;;;;5044762;28;20481;-62
2022/11/09 01:16:45;;;;;;;9.00;6.53;;;9.70;32.50;;;;;;5047950;28;20482;-62
2022/11/09 01:19:12;;;;;;;12.97;7.43;;;9.70;32.50;;;;;;5048107;28;20458;-62
2022/11/09 01:21:38;;;;;;;8.83;6.50;;;9.70;32.50;;;;;;5047898;28;20462;-61
2022/11/09 01:24:06;;;;;;;13.20;8.60;;;9.60;32.60;;;;;;5042019;28;20651;-61
2022/11/09 01:26:32;;;;;;;15.33;11.10;;;9.60;32.40;;;;;;5048149;28;20458;-61
2022/11/09 01:28:59;;;;;;;14.50;8.80;;;9.60;32.50;;;;;;5047203;28;20457;-61
2022/11/09 01:31:27;;;;;;;14.27;7.53;;;9.60;32.40;;;;;;5038876;28;20479;-61
2022/11/09 01:33:55;;;;;;;11.97;7.63;;;9.60;32.50;;;;;;5039150;28;21042;-62
2022/11/09 01:36:23;;;;;;;11.27;7.80;;;9.60;32.60;;;;;;5047117;28;20997;-61
2022/11/09 01:38:50;;;;;;;10.77;6.83;;;9.60;32.60;;;;;;5048433;28;20806;-62
2022/11/09 01:41:19;;;;;;;10.37;6.10;;;9.60;32.70;;;;;;5045183;28;20455;-61
2022/11/09 01:44:05;;;;;;;10.37;6.10;;;9.60;32.80;;;;;;5046176;28;20482;-61
2022/11/09 01:46:39;;;;;;;8.93;5.60;;;9.60;32.90;;;;;;5043486;28;20529;-62
2022/11/09 01:49:13;;;;;;;8.37;5.37;;;9.60;32.70;;;;;;5042738;28;20984;-61
2022/11/09 01:51:46;;;;;;;9.90;6.10;;;9.60;32.70;;;;;;5044836;28;20843;-61
2022/11/09 01:54:19;;;;;;;13.20;6.20;;;9.60;32.90;;;;;;5045481;28;22659;-61
2022/11/09 01:56:48;;;;;;;10.10;6.50;;;9.60;32.70;;;;;;5047031;28;20474;-61
2022/11/09 01:59:19;;;;;;;8.17;5.20;;;9.60;32.80;;;;;;5048692;28;20542;-62
2022/11/09 02:01:49;;;;;;;9.20;5.83;;;9.50;32.90;;;;;;5043263;28;20529;-62
2022/11/09 02:04:20;;;;;;;12.13;6.50;;;9.60;33.00;;;;;;5044714;28;20896;-61
2022/11/09 02:06:48;;;;;;;13.67;6.10;;;9.50;33.00;;;;;;5039735;28;20466;-62
2022/11/09 02:09:20;;;;;;;9.67;6.00;;;9.50;33.10;;;;;;5044885;28;20459;-62
2022/11/09 02:11:47;;;;;;;9.70;6.13;;;9.50;33.20;;;;;;5040328;28;21091;-62
2022/11/09 02:14:14;;;;;;;10.57;6.03;;;9.50;33.30;;;;;;5042677;28;20483;-62
2022/11/09 02:16:42;;;;;;;9.23;5.27;;;9.50;33.30;;;;;;5048265;28;21161;-62
2022/11/09 02:19:10;;;;;;;8.13;5.03;;;9.60;33.30;;;;;;5046174;28;20461;-62
2022/11/09 02:21:38;;;;;;;9.40;5.83;;;9.50;33.30;;;;;;5047363;28;20470;-62
2022/11/09 02:24:06;;;;;;;8.73;5.87;;;9.50;33.20;;;;;;5050971;22;20490;-70
2022/11/09 02:26:39;;;;;;;8.23;5.50;;;9.50;33.30;;;;;;5014542;28;20506;-70
2022/11/09 02:29:08;;;;;;;10.00;6.23;;;9.50;33.40;;;;;;5001869;28;20852;-72
2022/11/09 02:31:38;;;;;;;7.97;5.20;;;9.50;33.30;;;;;;5006244;28;20983;-70
2022/11/09 02:34:08;;;;;;;12.03;6.50;;;9.50;33.30;;;;;;5005616;28;20489;-70
2022/11/09 02:36:35;;;;;;;9.20;5.37;;;9.50;33.30;;;;;;5012022;28;20477;-70
2022/11/09 02:39:04;;;;;;;8.43;5.17;;;9.50;33.20;;;;;;5008472;28;20456;-71
2022/11/09 02:41:32;;;;;;;7.97;5.27;;;9.50;33.20;;;;;;5004118;28;20475;-71
2022/11/09 02:44:01;;;;;;;9.17;5.47;;;9.50;33.00;;;;;;5010021;28;21129;-71
2022/11/09 02:46:32;;;;;;;7.40;4.43;;;9.40;33.00;;;;;;5003985;28;20460;-71
2022/11/09 02:48:59;;;;;;;8.20;5.33;;;9.40;33.00;;;;;;5001089;28;20460;-71
2022/11/09 02:51:26;;;;;;;7.90;4.87;;;9.40;33.00;;;;;;5006300;28;20467;-71
2022/11/09 02:53:52;;;;;;;11.17;5.27;;;9.40;33.00;;;;;;5004335;28;20479;-71
2022/11/09 02:56:21;;;;;;;8.00;4.90;;;9.40;33.10;;;;;;4995858;28;20456;-71
2022/11/09 02:58:47;;;;;;;11.97;5.87;;;9.40;33.20;;;;;;5001467;28;20471;-71
2022/11/09 03:01:14;;;;;;;9.53;5.50;;;9.50;33.20;;;;;;5001940;28;20487;-71
2022/11/09 03:03:41;;;;;;;9.10;5.20;;;9.50;33.10;;;;;;5006745;28;20470;-70
2022/11/09 03:06:08;;;;;;;7.63;5.20;;;9.50;33.00;;;;;;5006504;28;20456;-71
2022/11/09 03:08:35;;;;;;;7.80;4.70;;;9.60;32.70;;;;;;5011227;28;20460;-71
2022/11/09 03:11:02;;;;;;;10.07;4.80;;;9.70;32.60;;;;;;5011448;28;20468;-70
2022/11/09 03:13:30;;;;;;;9.90;6.03;;;9.70;32.60;;;;;;5006154;28;20460;-71
2022/11/09 03:15:57;;;;;;;7.63;4.73;;;9.60;32.60;;;;;;5001761;28;20459;-71
2022/11/09 03:18:24;;;;;;;10.10;5.33;;;9.70;32.60;;;;;;4997147;28;20499;-71
2022/11/09 03:20:50;;;;;;;8.50;5.80;;;9.80;32.70;;;;;;5005653;28;20463;-71
2022/11/09 03:23:17;;;;;;;8.87;5.37;;;9.70;32.60;;;;;;5007120;28;20464;-71
2022/11/09 03:25:44;;;;;;;10.30;6.20;;;9.70;32.60;;;;;;5011979;28;20486;-71
2022/11/09 03:28:11;;;;;;;11.27;6.03;;;9.80;32.40;;;;;;5001365;28;20460;-70
2022/11/09 03:30:39;;;;;;;8.90;5.03;;;9.70;32.50;;;;;;5004876;28;20475;-70
2022/11/09 03:33:08;;;;;;;8.97;5.97;;;9.70;32.50;;;;;;5001175;28;20490;-70
2022/11/09 03:35:36;;;;;;;10.47;5.77;;;9.70;32.40;;;;;;5006894;28;20530;-71
2022/11/09 03:38:03;;;;;;;10.40;5.07;;;9.70;32.40;;;;;;5007111;28;20517;-70
2022/11/09 03:40:30;;;;;;;7.67;4.73;;;9.70;32.50;;;;;;5003807;28;20510;-69
2022/11/09 03:42:57;;;;;;;9.30;5.00;;;9.70;32.50;;;;;;5002090;28;20460;-72
2022/11/09 03:45:24;;;;;;;9.00;4.90;;;9.60;32.50;;;;;;5008656;28;20482;-71
2022/11/09 03:47:55;;;;;;;9.30;6.00;;;9.60;32.60;;;;;;5009097;28;20486;-71
2022/11/09 03:50:22;;;;;;;10.27;5.30;;;9.60;32.60;;;;;;5009170;28;20464;-72
2022/11/09 03:52:49;;;;;;;9.50;5.07;;;9.70;32.50;;;;;;5008763;28;20542;-72
2022/11/09 03:55:16;;;;;;;10.90;5.10;;;9.70;32.30;;;;;;5007253;28;21011;-70
2022/11/09 03:57:44;;;;;;;7.80;4.63;;;9.70;32.20;;;;;;5012370;28;20494;-73
2022/11/09 04:00:14;;;;;;;6.93;4.40;;;9.70;32.20;;;;;;5007166;28;20468;-68
2022/11/09 04:02:40;;;;;;;8.40;5.13;;;9.70;32.10;;;;;;5020992;28;20463;-71
2022/11/09 04:05:10;;;;;;;8.50;4.70;;;9.80;31.90;;;;;;5011740;28;20482;-70
2022/11/09 04:07:37;;;;;;;8.87;4.63;;;9.80;31.90;;;;;;5012767;28;20868;-70
2022/11/09 04:10:04;;;;;;;9.20;4.80;;;9.80;31.80;;;;;;5009307;28;20467;-71
2022/11/09 04:12:31;;;;;;;13.20;5.53;;;9.90;31.90;;;;;;5008927;28;20474;-71
2022/11/09 04:14:58;;;;;;;8.57;5.10;;;9.80;31.80;;;;;;5000694;28;21175;-71
2022/11/09 04:17:24;;;;;;;8.67;4.90;;;9.90;32.00;;;;;;5009051;28;20488;-70
2022/11/09 04:19:51;;;;;;;12.17;6.23;;;10.00;31.80;;;;;;5010096;28;21152;-70
2022/11/09 04:22:19;;;;;;;7.80;4.80;;;10.00;31.60;;;;;;5008018;28;20459;-70
2022/11/09 04:24:46;;;;;;;8.90;5.00;;;10.00;31.60;;;;;;5007023;28;20494;-71
2022/11/09 04:27:13;;;;;;;8.87;4.93;;;10.00;31.50;;;;;;5014664;28;20460;-71
2022/11/09 04:29:40;;;;;;;8.73;5.00;;;10.00;31.40;;;;;;5009167;28;20959;-72
2022/11/09 04:32:07;;;;;;;8.57;5.00;;;10.10;31.00;;;;;;4999203;28;20999;-72
2022/11/09 04:34:34;;;;;;;11.23;5.03;;;10.10;31.20;;;;;;5004411;28;21168;-71
2022/11/09 04:37:01;;;;;;;9.90;5.73;;;10.10;31.30;;;;;;4996372;28;20459;-71
2022/11/09 04:39:29;;;;;;;9.50;5.27;;;10.10;31.00;;;;;;4997030;28;20466;-71
2022/11/09 04:41:56;;;;;;;9.13;5.60;;;10.10;31.20;;;;;;4994981;28;20558;-71
2022/11/09 04:44:22;;;;;;;7.53;4.30;;;10.00;31.40;;;;;;4995542;28;20494;-71
2022/11/09 04:46:49;;;;;;;8.70;4.60;;;10.00;31.50;;;;;;4999568;28;20483;-71
2022/11/09 04:49:16;;;;;;;7.73;4.63;;;10.00;31.60;;;;;;5004188;28;20486;-71
2022/11/09 04:51:43;;;;;;;9.20;4.47;;;10.00;31.70;;;;;;5003668;28;20468;-71
2022/11/09 04:54:10;;;;;;;9.80;5.30;;;10.10;31.70;;;;;;5001064;28;21062;-71
2022/11/09 04:56:39;;;;;;;10.70;4.70;;;10.10;31.70;;;;;;5004711;28;20462;-71
2022/11/09 04:59:05;;;;;;;9.27;4.93;;;10.20;31.70;;;;;;4998821;28;20491;-70
2022/11/09 05:01:32;;;;;;;8.33;4.70;;;10.20;31.70;;;;;;4999625;28;21279;-70
2022/11/09 05:03:59;;;;;;;8.70;5.77;;;10.20;31.70;;;;;;5000661;28;20487;-72
2022/11/09 05:06:32;;;;;;;9.40;5.10;;;10.20;31.50;;;;;;4999030;28;20456;-69
2022/11/09 05:09:00;;;;;;;6.80;4.80;;;10.20;31.40;;;;;;5001023;28;20459;-70
2022/11/09 05:11:26;;;;;;;10.57;5.30;;;10.20;31.40;;;;;;5004650;28;20786;-70
2022/11/09 05:13:54;;;;;;;7.93;4.70;;;10.20;31.30;;;;;;5018284;28;20613;-70
2022/11/09 05:16:22;;;;;;;8.70;5.07;;;10.20;31.40;;;;;;5011529;28;20458;-69
2022/11/09 05:18:50;;;;;;;9.57;5.10;;;10.20;31.30;;;;;;5008951;28;20618;-70
2022/11/09 05:21:17;;;;;;;9.30;5.00;;;10.20;31.30;;;;;;5011783;28;20464;-71
2022/11/09 05:23:59;;;;;;;9.23;5.27;;;10.30;31.30;;;;;;5008779;28;21075;-70
2022/11/09 05:26:30;;;;;;;8.93;5.63;;;10.30;31.20;;;;;;5013496;28;20551;-70
2022/11/09 05:28:59;;;;;;;10.10;5.27;;;10.30;31.10;;;;;;5015739;28;20475;-70
2022/11/09 05:31:27;;;;;;;7.80;5.40;;;10.30;30.90;;;;;;5010884;28;20488;-71
2022/11/09 05:33:54;;;;;;;9.93;5.53;;;10.40;30.90;;;;;;5006287;28;20480;-70
2022/11/09 05:36:22;;;;;;;7.70;5.10;;;10.40;31.00;;;;;;5005780;28;20459;-70
2022/11/09 05:38:49;;;;;;;8.03;5.73;;;10.40;31.20;;;;;;5014509;28;20479;-70
2022/11/09 05:41:16;;;;;;;8.30;4.90;;;10.40;32.00;;;;;;5014505;28;21493;-69
2022/11/09 05:43:44;;;;;;;7.87;5.00;;;10.40;31.40;;;;;;5021431;28;20462;-69
2022/11/09 05:46:13;;;;;;;8.40;5.23;;;10.40;31.50;;;;;;5003234;28;20904;-69
2022/11/09 05:48:40;;;;;;;10.07;5.80;;;10.40;31.50;;;;;;5013486;28;20470;-69
2022/11/09 05:51:09;;;;;;;8.03;5.37;;;10.40;31.50;;;;;;5008617;28;20475;-69
2022/11/09 05:53:36;;;;;;;8.70;4.97;;;10.40;31.60;;;;;;5012740;28;20902;-70
2022/11/09 05:56:04;;;;;;;8.07;5.50;;;10.40;31.60;;;;;;5005395;28;20456;-71
2022/11/09 05:58:35;;;;;;;9.80;5.13;;;10.40;31.80;;;;;;5009809;28;20485;-69
2022/11/09 06:01:02;;;;;;;7.13;5.13;;;10.40;31.70;;;;;;5009984;28;20472;-70
2022/11/09 06:03:31;;;;;;;7.77;4.67;;;10.40;32.20;;;;;;5005688;28;20731;-72
2022/11/09 06:06:01;;;;;;;8.20;5.07;;;10.40;31.50;;;;;;5008164;28;20457;-70
2022/11/09 06:08:28;;;;;;;10.37;5.33;;;10.50;31.40;;;;;;5019785;28;20506;-69
2022/11/09 06:10:59;;;;;;;8.33;4.73;;;10.50;31.40;;;;;;5011298;28;20456;-71
2022/11/09 06:13:26;;;;;;;9.07;4.10;;;10.50;31.30;;;;;;5009140;28;20464;-70
2022/11/09 06:15:54;;;;;;;8.47;4.80;;;10.50;31.20;;;;;;5012394;28;20728;-70
2022/11/09 06:18:21;;;;;;;8.10;4.60;;;10.50;31.00;;;;;;5018003;28;20483;-70
2022/11/09 06:20:53;;;;;;;7.20;4.37;;;10.50;31.20;;;;;;5015210;28;20459;-69
2022/11/09 06:23:24;;;;;;;8.67;4.70;;;10.50;31.20;;;;;;4998827;28;20830;-70
2022/11/09 06:25:51;;;;;;;8.67;4.10;;;10.50;31.20;;;;;;5006422;28;20499;-70
2022/11/09 06:28:18;;;;;;;7.17;4.80;;;10.50;31.20;;;;;;4999966;28;20511;-70
2022/11/09 06:30:45;;;;;;;7.40;4.63;;;10.50;31.30;;;;;;5009343;28;20478;-70
2022/11/09 06:33:11;;;;;;;6.90;4.80;;;10.60;31.30;;;;;;5007576;28;20464;-70
2022/11/09 06:35:38;;;;;;;7.73;4.80;;;10.60;31.30;;;;;;5015848;28;20477;-70
2022/11/09 06:38:06;;;;;;;9.40;4.50;;;10.60;31.40;;;;;;5007698;28;20479;-70
2022/11/09 06:40:34;;;;;;;7.60;4.27;;;10.50;31.70;;;;;;5010220;28;20468;-70
2022/11/09 06:43:01;;;;;;;8.00;4.50;;;10.50;31.90;;;;;;5009108;28;20470;-70
2022/11/09 06:45:29;;;;;;;9.07;4.57;;;10.50;32.00;;;;;;5008378;28;20479;-70
2022/11/09 06:47:56;;;;;;;10.10;4.83;;;10.50;32.10;;;;;;5003764;28;20467;-69
2022/11/09 06:50:23;;;;;;;8.70;4.50;;;10.60;32.40;;;;;;5009325;28;20957;-69
2022/11/09 06:52:50;;;;;;;7.57;4.67;;;10.60;32.10;;;;;;5000846;28;20462;-70
2022/11/09 06:55:18;;;;;;;7.00;4.27;;;10.60;32.10;;;;;;5009432;28;20826;-70
2022/11/09 06:57:45;;;;;;;8.00;4.20;;;10.60;32.30;;;;;;5003532;28;20837;-71
2022/11/09 07:00:13;;;;;;;8.93;4.47;;;10.60;32.50;;;;;;5007143;28;20460;-70
2022/11/09 07:02:40;;;;;;;9.50;4.30;;;10.70;32.80;;;;;;5017388;28;20841;-70
2022/11/09 07:05:07;;;;;;;10.97;4.60;;;10.60;32.90;;;;;;5003070;28;20481;-70
2022/11/09 07:07:34;;;;;;;8.20;4.57;;;10.60;33.10;;;;;;5010722;28;20471;-70
2022/11/09 07:10:01;;;;;;;9.50;4.20;;;10.70;33.30;;;;;;5002643;28;21141;-70
2022/11/09 07:12:29;;;;;;;8.50;4.60;;;10.70;33.30;;;;;;5013857;28;20511;-70
2022/11/09 07:14:56;;;;;;;10.47;4.30;;;10.70;33.40;;;;;;5006449;28;20505;-69
2022/11/09 07:17:22;;;;;;;9.30;4.60;;;10.70;33.40;;;;;;5019080;28;20456;-70
2022/11/09 07:19:49;;;;;;;7.50;4.40;;;10.70;33.40;;;;;;5002383;28;20940;-71
2022/11/09 07:22:16;;;;;;;7.33;4.00;;;10.70;33.50;;;;;;5008586;28;20482;-70
2022/11/09 07:24:43;;;;;;;13.30;4.27;;;10.70;33.30;;;;;;5017227;28;20486;-70
2022/11/09 07:27:09;;;;;;;6.80;3.27;;;10.70;33.50;;;;;;5016754;28;20475;-70
2022/11/09 07:29:38;;;;;;;7.60;4.07;;;10.70;33.30;;;;;;5015044;28;20452;-70
2022/11/09 07:32:04;;;;;;;8.20;3.90;;;10.70;33.10;;;;;;5008113;28;20476;-70
2022/11/09 07:34:31;;;;;;;6.50;4.20;;;10.80;32.80;;;;;;5014075;28;20504;-70
2022/11/09 07:36:58;;;;;;;6.40;3.60;;;10.80;32.90;;;;;;5010793;28;20466;-70
2022/11/09 07:39:25;;;;;;;7.40;4.70;;;10.80;33.00;;;;;;5001855;28;20483;-70
2022/11/09 07:41:52;;;;;;;8.03;4.00;;;10.90;33.10;;;;;;5004865;28;20549;-70
2022/11/09 07:44:18;;;;;;;7.97;3.47;;;10.90;33.10;;;;;;5012414;28;20489;-70
2022/11/09 07:46:49;;;;;;;10.30;4.47;;;10.90;33.30;;;;;;5011856;28;20937;-70
2022/11/09 07:49:16;;;;;;;9.00;3.83;;;10.90;33.60;;;;;;5022038;28;20973;-70
2022/11/09 07:51:43;;;;;;;7.23;3.73;;;11.00;33.80;;;;;;5007331;28;20819;-70
2022/11/09 07:54:10;;;;;;;6.20;3.43;;;11.00;34.10;;;;;;5006515;28;20480;-70
2022/11/09 07:56:38;;;;;;;9.53;4.00;;;11.10;34.40;;;;;;5002230;28;20468;-69
2022/11/09 07:59:05;;;;;;;8.53;4.10;;;11.20;34.70;;;;;;5008205;28;20476;-71
2022/11/09 08:01:32;;;;;;;7.80;4.27;;;11.30;34.70;;;;;;5011415;28;20498;-71
2022/11/09 08:04:00;;;;;;;8.23;4.07;;;11.30;34.70;;;;;;5009259;28;20482;-70
2022/11/09 08:06:27;;;;;;;8.47;3.87;;;11.40;34.90;;;;;;5000315;28;20461;-69
2022/11/09 08:08:54;;;;;;;10.20;4.30;;;11.40;35.00;;;;;;5010129;28;21034;-70
2022/11/09 08:11:21;;;;;;;9.20;5.50;;;11.50;35.50;;;;;;5004594;28;20696;-69
2022/11/09 08:13:48;;;;;;;8.50;4.00;;;11.50;35.80;;;;;;5009963;28;20483;-70
2022/11/09 08:16:15;;;;;;;7.17;3.90;;;11.60;35.90;;;;;;5005873;28;20742;-70
2022/11/09 08:18:42;;;;;;;7.07;3.77;;;11.60;35.90;;;;;;5010534;28;21042;-70
2022/11/09 08:21:10;;;;;;;6.60;4.20;;;11.60;36.00;;;;;;5001152;28;20460;-70
2022/11/09 08:23:37;;;;;;;8.07;4.53;;;11.60;36.00;;;;;;5001599;28;20467;-70
2022/11/09 08:26:06;;;;;;;8.97;4.60;;;11.60;36.10;;;;;;5001740;28;20467;-72
2022/11/09 08:28:33;;;;;;;7.77;4.20;;;11.60;36.30;;;;;;5005082;28;20482;-70
2022/11/09 08:31:02;;;;;;;10.00;3.90;;;11.60;36.40;;;;;;5003135;28;20471;-70
2022/11/09 08:33:31;;;;;;;7.17;4.10;;;11.60;37.30;;;;;;5023674;22;20459;-61
2022/11/09 08:35:57;;;;;;;8.30;4.00;;;11.60;37.50;;;;;;5009644;28;20459;-61
2022/11/09 08:38:25;;;;;;;8.60;3.83;;;11.60;37.70;;;;;;5015620;28;20573;-61
2022/11/09 08:40:57;;;;;;;7.40;4.27;;;11.60;37.80;;;;;;5013118;28;20553;-61
2022/11/09 08:43:24;;;;;;;8.97;4.60;;;11.60;38.10;;;;;;5011766;28;20460;-62
2022/11/09 08:45:51;;;;;;;9.17;4.13;;;11.60;38.00;;;;;;5016148;28;20837;-61
2022/11/09 08:48:18;;;;;;;9.83;4.00;;;11.60;38.10;;;;;;5015358;28;20465;-61
2022/11/09 08:50:44;;;;;;;8.33;4.30;;;11.70;38.20;;;;;;5013172;28;20462;-61
2022/11/09 08:53:11;;;;;;;8.87;4.70;;;11.70;38.30;;;;;;5005985;28;20461;-61
2022/11/09 08:55:39;;;;;;;9.00;4.63;;;11.70;38.20;;;;;;5023755;28;20487;-62
2022/11/09 08:58:06;;;;;;;9.03;4.70;;;11.80;38.00;;;;;;5016521;28;21047;-61
2022/11/09 09:00:33;;;;;;;8.10;4.67;;;11.90;38.20;;;;;;5021500;28;20474;-61
2022/11/09 09:03:03;;;;;;;8.53;4.07;;;11.90;38.20;;;;;;5011289;28;21122;-61
2022/11/09 09:05:30;;;;;;;8.60;3.90;;;11.90;38.30;;;;;;5008350;28;20484;-61
2022/11/09 09:07:59;;;;;;;7.57;4.10;;;12.00;38.40;;;;;;5013052;28;20459;-62
2022/11/09 09:10:25;;;;;;;7.97;4.80;;;12.10;38.40;;;;;;5017752;28;20460;-61
2022/11/09 09:12:54;;;;;;;9.80;4.20;;;12.10;38.20;;;;;;5013476;28;20459;-61
2022/11/09 09:15:21;;;;;;;8.37;4.17;;;12.10;38.20;;;;;;5009050;28;20841;-61
2022/11/09 09:17:47;;;;;;;7.23;3.73;;;12.20;38.10;;;;;;5009811;28;20459;-62
2022/11/09 09:20:15;;;;;;;7.73;4.60;;;12.30;38.20;;;;;;5004243;28;20559;-62
2022/11/09 09:22:41;;;;;;;7.40;4.37;;;12.40;38.20;;;;;;5014940;28;20463;-61
2022/11/09 09:25:09;;;;;;;6.93;3.53;;;12.60;38.40;;;;;;5016947;28;20474;-62
2022/11/09 09:27:36;;;;;;;6.60;3.67;;;12.80;38.20;;;;;;5008742;28;20955;-61
2022/11/09 09:30:05;;;;;;;7.03;3.93;;;13.00;37.90;;;;;;5021485;28;20466;-61
2022/11/09 09:32:32;;;;;;;8.13;3.27;;;13.20;37.60;;;;;;5013294;28;20486;-61
2022/11/09 09:34:59;;;;;;;7.13;4.20;;;13.30;37.30;;;;;;5013628;28;20523;-61
2022/11/09 09:37:26;;;;;;;6.20;3.60;;;13.60;36.90;;;;;;5008167;28;20460;-62
2022/11/09 09:39:52;;;;;;;7.33;3.20;;;13.70;36.40;;;;;;5012839;28;20482;-62
2022/11/09 09:42:23;;;;;;;7.47;3.30;;;13.90;36.00;;;;;;5006657;28;20490;-62
2022/11/09 09:44:59;;;;;;;7.43;3.43;;;14.00;35.50;;;;;;5001249;28;20483;-62
2022/11/09 09:47:43;;;;;;;7.60;3.37;;;14.10;35.50;;;;;;5006396;28;20973;-62
2022/11/09 09:50:14;;;;;;;8.03;3.63;;;14.20;35.20;;;;;;5011356;28;20468;-62
2022/11/09 09:52:45;;;;;;;7.83;2.97;;;14.30;35.10;;;;;;5010258;28;20459;-62
2022/11/09 09:55:19;;;;;;;6.70;3.30;;;14.30;34.60;;;;;;5002389;28;20478;-62
2022/11/09 09:57:52;;;;;;;6.40;3.43;;;14.40;34.50;;;;;;5010612;28;20455;-63
2022/11/09 10:00:23;;;;;;;13.83;3.63;;;14.40;34.60;;;;;;5011001;28;20490;-63
2022/11/09 10:02:51;;;;;;;6.90;3.40;;;14.50;34.50;;;;;;5005980;28;20958;-63
2022/11/09 10:05:20;;;;;;;8.90;2.97;;;14.50;34.40;;;;;;5011510;28;20590;-63
2022/11/09 10:08:05;;;;;;;7.03;2.70;;;14.60;34.40;;;;;;5003787;28;20459;-62
2022/11/09 10:10:43;;;;;;;8.00;2.90;;;14.60;34.40;;;;;;5005264;28;20455;-62
2022/11/09 10:13:40;;;;;;;7.83;3.03;;;14.70;34.40;;;;;;5016227;28;20455;-62
2022/11/09 10:16:14;;;;;;;7.90;3.53;;;14.80;34.40;;;;;;4992578;28;20451;-63
2022/11/09 10:19:00;;;;;;;5.77;3.00;;;14.90;34.10;;;;;;5012806;28;20458;-62
2022/11/09 10:21:39;;;;;;;6.60;3.20;;;15.10;34.30;;;;;;5014340;28;20460;-63
2022/11/09 10:24:16;;;;;;;5.80;3.27;;;15.40;33.70;;;;;;5011998;28;20479;-63
2022/11/09 10:26:45;;;;;;;5.97;3.27;;;15.60;32.80;;;;;;5004599;28;20470;-63
2022/11/09 10:29:21;;;;;;;6.90;3.67;;;15.60;32.20;;;;;;5001266;28;21008;-62
2022/11/09 10:31:51;;;;;;;7.17;3.73;;;15.60;32.20;;;;;;5000347;28;21157;-63
2022/11/09 10:34:21;;;;;;;14.33;9.90;;;15.60;31.80;;;;;;5006915;28;21179;-62
2022/11/09 10:36:56;;;;;;;10.17;4.47;;;15.50;31.90;;;;;;5011945;28;20805;-63
2022/11/09 10:39:26;;;;;;;8.73;3.93;;;15.60;32.00;;;;;;5010457;28;20482;-62
2022/11/09 10:41:53;;;;;;;6.20;3.07;;;15.80;32.30;;;;;;5006087;28;20466;-63
2022/11/09 10:44:20;;;;;;;5.73;2.87;;;16.70;31.30;;;;;;5005012;28;20494;-63
2022/11/09 10:47:05;;;;;;;5.17;2.80;;;17.40;29.30;;;;;;5002582;28;20460;-62
2022/11/09 10:49:34;;;;;;;5.20;2.20;;;18.20;26.90;;;;;;5005327;28;20463;-63
2022/11/09 10:52:01;;;;;;;5.83;2.70;;;18.40;25.40;;;;;;5013224;28;20465;-63
2022/11/09 10:54:32;;;;;;;6.17;2.37;;;18.80;25.30;;;;;;5019470;28;20482;-63
2022/11/09 10:57:04;;;;;;;5.87;1.87;;;19.40;22.20;;;;;;5006095;28;20474;-63
2022/11/09 10:59:44;;;;;;;6.97;2.50;;;19.80;21.30;;;;;;5001684;28;20475;-63
2022/11/09 11:02:43;;;;;;;5.00;2.10;;;19.90;20.20;;;;;;4994564;28;21045;-63
2022/11/09 11:05:26;;;;;;;4.30;1.80;;;19.50;20.30;;;;;;5006775;28;20487;-63
2022/11/09 11:07:53;;;;;;;4.57;2.13;;;19.00;20.90;;;;;;5011176;28;20455;-63
2022/11/09 11:10:21;;;;;;;4.80;2.13;;;18.50;22.00;;;;;;5009922;28;20460;-63
2022/11/09 11:12:57;;;;;;;6.87;3.00;;;18.20;22.70;;;;;;5010506;28;20455;-63
2022/11/09 11:15:26;;;;;;;5.87;2.23;;;18.00;23.50;;;;;;5011617;28;20471;-63
2022/11/09 11:18:01;;;;;;;4.70;1.80;;;17.80;23.90;;;;;;5007025;28;20462;-63
2022/11/09 11:20:31;;;;;;;4.90;1.80;;;17.70;24.40;;;;;;5005419;28;20475;-63
2022/11/09 11:23:12;;;;;;;5.10;1.90;;;17.60;24.20;;;;;;5017089;28;20478;-63
2022/11/09 11:25:56;;;;;;;4.90;1.83;;;17.50;24.80;;;;;;5010211;28;20452;-63
2022/11/09 11:28:26;;;;;;;4.00;1.70;;;17.40;24.80;;;;;;5010088;28;20539;-63
2022/11/09 11:30:53;;;;;;;5.30;1.97;;;17.20;25.10;;;;;;5006932;28;20463;-62
2022/11/09 11:33:21;;;;;;;6.77;2.00;;;17.10;25.60;;;;;;5004705;28;20467;-63
2022/11/09 11:35:56;;;;;;;5.53;2.00;;;17.00;25.80;;;;;;5002467;28;20518;-63
2022/11/09 11:38:30;;;;;;;5.07;1.80;;;17.00;26.20;;;;;;5015534;28;20496;-63
2022/11/09 11:41:04;;;;;;;5.13;1.90;;;16.90;26.50;;;;;;5010334;28;20491;-63
2022/11/09 11:43:45;;;;;;;4.83;1.90;;;16.80;26.80;;;;;;5014791;28;20485;-63
2022/11/09 11:46:21;;;;;;;5.40;2.20;;;16.70;27.20;;;;;;4998147;28;20463;-63
2022/11/09 11:49:23;;;;;;;5.60;2.00;;;16.70;27.40;;;;;;5008166;28;20469;-63
2022/11/09 11:52:00;;;;;;;4.03;1.43;;;16.60;27.60;;;;;;5008570;28;20459;-63
2022/11/09 11:54:38;;;;;;;4.47;1.57;;;16.50;27.70;;;;;;5004127;28;20531;-62
2022/11/09 11:57:14;;;;;;;4.77;1.60;;;16.40;27.60;;;;;;5003883;28;20556;-63
2022/11/09 12:00:04;;;;;;;4.57;1.43;;;16.30;28.10;;;;;;5012512;28;20482;-63
2022/11/09 12:03:09;;;;;;;4.90;1.93;;;16.20;28.50;;;;;;5002638;28;20486;-63
2022/11/09 12:05:56;;;;;;;4.93;1.90;;;16.20;28.70;;;;;;5014622;28;20461;-63
2022/11/09 12:08:33;;;;;;;5.50;1.97;;;16.10;28.60;;;;;;5010638;28;21003;-63
2022/11/09 12:11:11;;;;;;;5.10;1.80;;;16.10;29.20;;;;;;5003130;28;20455;-62
2022/11/09 12:13:52;;;;;;;5.67;2.20;;;16.00;29.60;;;;;;5005094;28;20484;-63
2022/11/09 12:16:27;;;;;;;5.03;2.33;;;16.00;29.70;;;;;;5010646;28;20464;-63
2022/11/09 12:19:09;;;;;;;4.93;1.97;;;16.00;29.70;;;;;;5005036;28;20466;-63
2022/11/09 12:21:44;;;;;;;5.83;2.40;;;16.00;30.00;;;;;;5017703;28;20449;-62
2022/11/09 12:24:21;;;;;;;4.70;2.07;;;16.10;30.30;;;;;;5010157;28;20986;-62
2022/11/09 12:27:04;;;;;;;6.30;2.87;;;16.20;30.20;;;;;;5003406;28;20459;-63
2022/11/09 12:29:37;;;;;;;6.20;2.03;;;16.40;30.50;;;;;;5009497;28;20495;-63
2022/11/09 12:32:17;;;;;;;8.33;1.90;;;16.80;29.70;;;;;;5007270;28;20478;-62
2022/11/09 12:34:52;;;;;;;5.20;1.97;;;17.10;28.50;;;;;;5021551;28;20486;-62
2022/11/09 12:37:26;;;;;;;11.90;8.67;;;17.30;27.10;;;;;;5009310;28;20844;-63
2022/11/09 12:39:59;;;;;;;7.30;4.10;;;17.30;27.10;;;;;;5009189;28;20553;-63
2022/11/09 12:42:31;;;;;;;5.47;2.20;;;17.40;26.90;;;;;;5008572;28;20539;-63
2022/11/09 12:45:04;;;;;;;5.23;2.20;;;17.40;26.40;;;;;;5017865;28;21238;-63
2022/11/09 12:47:37;;;;;;;5.70;2.40;;;17.40;26.70;;;;;;5007948;28;20459;-62
2022/11/09 12:50:05;;;;;;;6.03;2.73;;;17.40;26.20;;;;;;5018224;28;20455;-63
2022/11/09 12:52:32;;;;;;;4.20;1.70;;;17.40;25.40;;;;;;5018728;28;20455;-63
2022/11/09 12:55:04;;;;;;;4.90;2.00;;;17.40;25.50;;;;;;5012160;28;21021;-63
2022/11/09 12:57:32;;;;;;;4.90;1.73;;;17.40;26.00;;;;;;5002120;28;20626;-63
2022/11/09 13:00:00;;;;;;;5.50;1.53;;;17.50;25.60;;;;;;5008975;28;20476;-63